.
WxDataArchive / Data Records for 2013-05-25
2013-05-24 May 2013 2013-05-26

Data Records for Saturday, 25 May 2013

Time	Temp	Chill	HIndex	Humid	Dewpt	 Wind 	HiWind	WindDir	Rain 	Barom 
-----	----	-----	------	-----	-----	------	------	-------	-----	----- 
00:00	46.7	46.7	46.7	75	39.2	0	1	315	0.00	30.322 
00:05	46.4	46.4	46.4	76	39.3	0	1	315	0.00	30.322 
00:10	46.2	46.2	46.2	76	39.1	0	0	---	0.00	30.322 
00:15	46.1	46.1	46.1	77	39.3	0	0	---	0.00	30.332 
00:20	46.1	46.1	46.1	77	39.3	0	0	---	0.00	30.332 
00:25	46.0	46.0	46.0	77	39.2	0	0	---	0.00	30.332 
00:30	45.8	45.8	45.8	77	39.0	0	0	---	0.00	30.330 
00:35	45.5	45.5	45.5	78	39.0	0	0	---	0.00	30.330 
00:40	45.4	45.4	45.4	79	39.3	0	0	---	0.00	30.330 
00:45	45.2	45.2	45.2	79	39.1	0	0	---	0.00	30.333 
00:50	45.1	45.1	45.1	79	39.0	0	1	315	0.00	30.333 
00:55	44.9	44.9	44.9	80	39.1	0	0	---	0.00	30.333 
01:00	44.8	44.8	44.8	80	39.0	0	0	---	0.00	30.337 
01:05	44.6	44.6	44.6	81	39.1	0	0	---	0.00	30.337 
01:10	44.5	44.5	44.5	81	39.0	0	0	---	0.00	30.337 
01:15	44.3	44.3	44.3	81	38.8	0	0	---	0.00	30.333 
01:20	44.2	44.2	44.2	81	38.7	0	0	---	0.00	30.333 
01:25	44.1	44.1	44.1	81	38.6	0	0	---	0.00	30.333 
01:30	43.9	43.9	43.9	82	38.8	0	0	---	0.00	30.327 
01:35	43.8	43.8	43.8	82	38.7	0	0	---	0.00	30.327 
01:40	43.8	43.8	43.8	83	39.0	0	0	---	0.00	30.327 
01:45	43.6	43.6	43.6	83	38.8	0	0	---	0.00	30.332 
01:50	43.5	43.5	43.5	83	38.7	0	0	---	0.00	30.332 
01:55	43.3	43.3	43.3	84	38.8	0	0	---	0.00	30.332 
02:00	43.2	43.2	43.2	84	38.7	0	0	---	0.00	30.335 
02:05	43.1	43.1	43.1	84	38.6	0	0	---	0.00	30.335 
02:10	42.9	42.9	42.9	84	38.4	0	0	---	0.00	30.335 
02:15	42.8	42.8	42.8	85	38.6	0	0	---	0.00	30.326 
02:20	42.6	42.6	42.6	85	38.4	0	0	---	0.00	30.326 
02:25	42.6	42.6	42.6	85	38.4	0	0	---	0.00	30.326 
02:30	42.5	42.5	42.5	86	38.6	0	0	---	0.00	30.326 
02:35	42.3	42.3	42.3	86	38.4	0	0	---	0.00	30.326 
02:40	42.2	42.2	42.2	86	38.3	0	0	---	0.00	30.326 
02:45	42.1	42.1	42.1	86	38.2	0	0	---	0.00	30.330 
02:50	41.9	41.9	41.9	87	38.3	0	0	---	0.00	30.330 
02:55	41.8	41.8	41.8	87	38.2	0	0	---	0.00	30.330 
03:00	41.6	41.6	41.6	87	38.0	0	0	---	0.00	30.330 
03:05	41.5	41.5	41.5	87	37.9	0	0	---	0.00	30.330 
03:10	41.5	41.5	41.5	88	38.2	0	0	---	0.00	30.330 
03:15	41.5	41.5	41.5	88	38.2	0	0	---	0.00	30.332 
03:20	41.5	41.5	41.5	88	38.2	0	0	---	0.00	30.332 
03:25	41.3	41.3	41.3	88	38.0	0	0	---	0.00	30.332 
03:30	41.2	41.2	41.2	88	37.9	0	0	---	0.00	30.323 
03:35	41.1	41.1	41.1	88	37.8	0	0	---	0.00	30.323 
03:40	41.1	41.1	41.1	88	37.8	0	0	---	0.00	30.323 
03:45	41.1	41.1	41.1	89	38.1	0	0	---	0.00	30.324 
03:50	40.9	40.9	40.9	89	37.9	0	0	---	0.00	30.324 
03:55	40.8	40.8	40.8	89	37.8	0	0	---	0.00	30.324 
04:00	40.8	40.8	40.8	89	37.8	0	0	---	0.00	30.325 
04:05	40.6	40.6	40.6	89	37.6	0	0	---	0.00	30.325 
04:10	40.6	40.6	40.6	89	37.6	0	0	---	0.00	30.325 
04:15	40.6	40.6	40.6	89	37.6	0	0	---	0.00	30.322 
04:20	40.6	40.6	40.6	90	37.9	0	0	---	0.00	30.322 
04:25	40.6	40.6	40.6	90	37.9	0	0	---	0.00	30.322 
04:30	40.6	40.6	40.6	90	37.9	0	0	---	0.00	30.318 
04:35	40.8	40.8	40.8	90	38.1	0	0	---	0.00	30.318 
04:40	40.9	40.9	40.9	90	38.2	0	0	---	0.00	30.318 
04:45	41.1	41.1	41.1	91	38.7	0	0	---	0.00	30.313 
04:50	41.1	41.1	41.1	91	38.7	0	0	---	0.00	30.313 
04:55	41.1	41.1	41.1	91	38.7	0	0	---	0.00	30.313 
05:00	41.2	41.2	41.2	91	38.8	0	0	---	0.00	30.307 
05:05	41.3	41.3	41.3	91	38.9	0	0	---	0.00	30.307 
05:10	41.5	41.5	41.5	91	39.1	0	0	---	0.00	30.307 
05:15	41.5	41.5	41.5	91	39.1	0	0	---	0.00	30.303 
05:20	41.6	41.6	41.6	91	39.2	0	0	---	0.00	30.303 
05:25	41.6	41.6	41.6	91	39.2	0	0	---	0.00	30.303 
05:30	41.6	41.6	41.6	91	39.2	0	0	---	0.00	30.303 
05:35	41.5	41.5	41.5	91	39.1	0	0	---	0.00	30.303 
05:40	41.5	41.5	41.5	91	39.1	0	0	---	0.00	30.303 
05:45	41.5	41.5	41.5	91	39.1	0	0	---	0.00	30.300 
05:50	41.6	41.6	41.6	92	39.5	0	0	---	0.00	30.300 
05:55	41.8	41.8	41.8	92	39.6	0	0	---	0.00	30.300 
06:00	41.9	41.9	41.9	92	39.7	0	0	---	0.00	30.304 
06:05	41.9	41.9	41.9	92	39.7	0	0	---	0.00	30.304 
06:10	41.9	41.9	41.9	92	39.7	0	0	---	0.00	30.304 
06:15	41.9	41.9	41.9	92	39.7	0	0	---	0.00	30.308 
06:20	41.9	41.9	41.9	92	39.7	0	0	---	0.00	30.308 
06:25	42.1	42.1	42.1	92	39.9	0	0	---	0.00	30.308 
06:30	42.2	42.2	42.2	92	40.0	0	0	---	0.00	30.317 
06:35	42.3	42.3	42.3	92	40.1	0	0	---	0.00	30.317 
06:40	42.5	42.5	42.5	92	40.3	0	0	---	0.00	30.317 
06:45	42.6	42.6	42.6	92	40.4	0	0	---	0.00	30.321 
06:50	42.8	42.8	42.8	92	40.6	0	0	---	0.00	30.321 
06:55	42.9	42.9	42.9	92	40.7	0	0	---	0.00	30.321 
07:00	43.1	43.1	43.1	92	40.9	0	0	---	0.00	30.330 
07:05	43.3	43.3	43.3	92	41.1	0	0	---	0.00	30.330 
07:10	43.8	43.8	43.8	93	41.9	0	0	---	0.00	30.330 
07:15	44.3	44.3	44.3	93	42.4	0	0	---	0.00	30.332 
07:20	45.4	45.4	45.4	93	43.5	0	0	---	0.00	30.332 
07:25	46.2	46.2	46.2	91	43.7	0	1	315	0.00	30.332 
07:30	47.0	47.0	47.0	88	43.6	0	2	315	0.00	30.332 
07:35	47.3	47.3	47.3	86	43.3	0	2	315	0.00	30.332 
07:40	47.4	47.4	47.4	85	43.1	0	1	315	0.00	30.332 
07:45	47.6	47.6	47.6	85	43.3	0	0	---	0.00	30.347 
07:50	47.9	47.9	47.9	84	43.3	0	0	---	0.00	30.347 
07:55	48.2	48.2	48.2	82	43.0	0	1	315	0.00	30.347 
08:00	48.5	48.5	48.5	81	42.9	0	1	315	0.00	30.356 
08:05	48.9	48.9	48.9	79	42.7	0	1	315	0.00	30.356 
08:10	49.4	49.4	49.4	78	42.8	0	1	315	0.00	30.356 
08:15	49.8	49.8	49.8	76	42.5	0	1	248	0.00	30.358 
08:20	50.4	50.4	50.4	76	43.1	0	0	---	0.00	30.358 
08:25	51.1	51.1	51.1	73	42.7	0	1	248	0.00	30.358 
08:30	52.2	52.2	52.2	70	42.7	0	1	248	0.00	30.359 
08:35	53.1	53.1	53.1	65	41.6	0	1	248	0.00	30.359 
08:40	53.8	53.8	53.8	62	41.1	1	3	248	0.00	30.359 
08:45	54.1	54.1	54.1	60	40.5	0	2	248	0.00	30.360 
08:50	54.4	54.4	54.4	61	41.2	0	0	---	0.00	30.360 
08:55	54.8	54.8	54.8	60	41.2	0	1	248	0.00	30.360 
09:00	55.3	55.3	55.3	58	40.8	0	2	248	0.00	30.357 
09:05	55.9	55.9	55.9	59	41.8	0	1	248	0.00	30.357 
09:10	56.5	56.5	56.5	57	41.5	0	3	248	0.00	30.357 
09:15	56.7	56.7	56.7	57	41.6	0	2	248	0.00	30.360 
09:20	57.0	57.0	57.0	56	41.5	0	1	248	0.00	30.360 
09:25	56.9	56.9	56.9	53	39.9	0	3	248	0.00	30.360 
09:30	56.0	56.0	56.0	54	39.6	0	2	248	0.00	30.362 
09:35	56.2	56.2	56.2	54	39.8	0	1	248	0.00	30.362 
09:40	56.9	56.9	56.9	51	39.0	0	2	248	0.00	30.362 
09:45	57.8	57.8	57.8	52	40.3	0	3	248	0.00	30.362 
09:50	58.4	58.4	58.4	48	38.8	1	3	248	0.00	30.362 
09:55	58.7	58.7	58.7	47	38.5	1	2	248	0.00	30.362 
10:00	58.7	58.7	58.7	49	39.6	1	2	248	0.00	30.362 
10:05	58.3	58.3	58.3	50	39.7	0	1	248	0.00	30.362 
10:10	58.0	58.0	58.0	52	40.5	0	2	248	0.00	30.362 
10:15	58.3	58.3	58.3	50	39.7	0	2	248	0.00	30.363 
10:20	58.3	58.3	58.3	49	39.2	0	1	248	0.00	30.363 
10:25	58.0	58.0	58.0	49	38.9	0	2	248	0.00	30.363 
10:30	57.8	57.8	57.8	50	39.3	0	1	248	0.00	30.367 
10:35	57.6	57.6	57.6	50	39.1	0	2	248	0.00	30.367 
10:40	57.8	57.8	57.8	50	39.3	0	2	248	0.00	30.367 
10:45	58.4	58.4	58.4	50	39.8	1	3	248	0.00	30.365 
10:50	58.9	58.9	58.9	52	41.3	0	1	248	0.00	30.365 
10:55	59.0	59.0	59.0	49	39.9	0	1	248	0.00	30.365 
11:00	59.2	59.2	59.2	51	41.1	0	2	248	0.00	30.365 
11:05	58.9	58.9	58.9	46	38.2	1	2	248	0.00	30.365 
11:10	58.7	58.7	58.7	47	38.5	0	1	248	0.00	30.365 
11:15	59.0	59.0	59.0	47	38.8	1	2	248	0.00	30.362 
11:20	59.2	59.2	59.2	47	39.0	1	6	248	0.00	30.362 
11:25	59.6	59.6	59.6	50	40.9	0	2	270	0.00	30.362 
11:30	60.7	60.7	60.7	49	41.4	0	2	270	0.00	30.358 
11:35	61.5	61.5	61.5	44	39.4	0	3	270	0.00	30.358 
11:40	62.0	62.0	62.0	43	39.2	1	3	270	0.00	30.358 
11:45	61.6	61.6	61.6	42	38.3	1	2	270	0.00	30.356 
11:50	61.2	61.2	61.2	44	39.1	1	4	270	0.00	30.356 
11:55	60.7	60.7	60.7	42	37.5	1	2	270	0.00	30.356 
12:00	61.3	61.3	61.3	46	40.3	0	2	270	0.00	30.354 
12:05	62.1	62.1	62.1	43	39.3	0	2	270	0.00	30.354 
12:10	63.1	63.1	63.1	40	38.4	0	2	270	0.00	30.354 
12:15	63.1	63.1	63.1	43	40.2	0	2	270	0.00	30.348 
12:20	62.7	62.7	62.7	40	38.0	1	2	270	0.00	30.348 
12:25	62.7	62.7	62.7	41	38.7	0	2	270	0.00	30.348 
12:30	62.7	62.7	62.7	41	38.7	1	6	270	0.00	30.347 
12:35	62.7	62.7	62.7	40	38.0	0	1	45	0.00	30.347 
12:40	63.1	63.1	63.1	37	36.4	1	5	68	0.00	30.347 
12:45	63.2	63.2	63.2	42	39.7	0	2	68	0.00	30.341 
12:50	63.7	63.7	63.7	43	40.8	0	2	68	0.00	30.341 
12:55	64.5	64.5	64.5	40	39.6	1	3	68	0.00	30.341 
13:00	64.7	64.7	64.7	43	41.7	1	4	68	0.00	30.333 
13:05	65.0	65.0	65.0	39	39.4	1	4	68	0.00	30.333 
13:10	65.2	65.2	65.2	39	39.6	1	3	22	0.00	30.333 
13:15	64.5	64.5	64.5	36	36.9	1	3	22	0.00	30.332 
13:20	64.2	64.2	64.2	38	38.1	1	4	22	0.00	30.332 
13:25	64.7	64.7	64.7	38	38.5	1	3	22	0.00	30.332 
13:30	65.2	65.2	65.2	37	38.3	1	3	22	0.00	30.333 
13:35	65.3	65.3	65.3	39	39.7	1	3	270	0.00	30.333 
13:40	65.3	65.3	65.3	37	38.4	1	4	292	0.00	30.333 
13:45	65.3	65.3	65.3	35	36.9	1	4	292	0.00	30.331 
13:50	65.6	65.6	65.6	38	39.3	1	3	202	0.00	30.331 
13:55	65.6	65.6	65.6	38	39.3	0	2	202	0.00	30.331 
14:00	66.0	66.0	66.0	36	38.3	1	4	112	0.00	30.329 
14:05	65.8	65.8	65.8	40	40.8	1	4	112	0.00	30.329 
14:10	66.0	66.0	66.0	39	40.3	0	2	112	0.00	30.329 
14:15	66.9	66.9	66.9	38	40.5	0	2	112	0.00	30.319 
14:20	67.3	67.3	67.3	35	38.7	0	2	112	0.00	30.319 
14:25	67.3	67.3	67.3	37	40.1	0	2	45	0.00	30.319 
14:30	67.3	67.3	67.3	37	40.1	0	1	45	0.00	30.314 
14:35	66.8	66.8	66.8	39	41.0	2	4	90	0.00	30.314 
14:40	66.3	66.3	66.3	38	39.9	1	4	90	0.00	30.314 
14:45	66.1	66.1	66.1	40	41.1	0	3	90	0.00	30.313 
14:50	66.3	66.3	66.3	37	39.2	0	1	90	0.00	30.313 
14:55	66.6	66.6	66.6	36	38.8	0	1	90	0.00	30.313 
15:00	66.4	66.4	66.4	35	37.9	1	3	90	0.00	30.307 
15:05	66.4	66.4	66.4	37	39.3	1	3	90	0.00	30.307 
15:10	66.4	66.4	66.4	36	38.6	1	3	90	0.00	30.307 
15:15	66.6	66.6	66.6	37	39.5	1	3	90	0.00	30.305 
15:20	66.4	66.4	66.4	35	37.9	0	1	90	0.00	30.305 
15:25	66.6	66.6	66.6	36	38.8	0	3	90	0.00	30.305 
15:30	66.4	66.4	66.4	35	37.9	1	3	90	0.00	30.301 
15:35	66.4	66.4	66.4	36	38.6	0	2	90	0.00	30.301 
15:40	66.4	66.4	66.4	36	38.6	1	3	90	0.00	30.301 
15:45	66.4	66.4	66.4	37	39.3	0	3	90	0.00	30.294 
15:50	66.3	66.3	66.3	37	39.2	0	2	90	0.00	30.294 
15:55	66.4	66.4	66.4	35	37.9	0	1	90	0.00	30.294 
16:00	66.6	66.6	66.6	35	38.1	0	2	90	0.00	30.285 
16:05	67.1	67.1	67.1	37	40.0	0	1	90	0.00	30.285 
16:10	67.4	67.4	67.4	34	38.1	0	1	90	0.00	30.285 
16:15	67.6	67.6	67.6	36	39.7	0	3	90	0.00	30.282 
16:20	67.3	67.3	67.3	33	37.2	1	3	90	0.00	30.282 
16:25	66.9	66.9	66.9	35	38.4	1	2	90	0.00	30.282 
16:30	66.3	66.3	66.3	36	38.5	2	4	22	0.00	30.284 
16:35	66.1	66.1	66.1	36	38.4	1	3	22	0.00	30.284 
16:40	66.0	66.0	66.0	38	39.7	0	2	22	0.00	30.284 
16:45	66.1	66.1	66.1	37	39.1	0	2	22	0.00	30.280 
16:50	66.3	66.3	66.3	37	39.2	0	3	22	0.00	30.280 
16:55	66.4	66.4	66.4	34	37.2	1	3	90	0.00	30.280 
17:00	66.9	66.9	66.9	36	39.1	0	3	90	0.00	30.268 
17:05	67.4	67.4	67.4	34	38.1	0	2	90	0.00	30.268 
17:10	67.3	67.3	67.3	35	38.7	0	2	90	0.00	30.268 
17:15	67.4	67.4	67.4	35	38.8	0	2	90	0.00	30.266 
17:20	67.6	67.6	67.6	35	39.0	1	4	90	0.00	30.266 
17:25	67.8	67.8	67.8	34	38.4	0	3	90	0.00	30.266 
17:30	67.8	67.8	67.8	33	37.6	0	2	90	0.00	30.257 
17:35	68.1	68.1	68.1	34	38.7	0	1	90	0.00	30.257 
17:40	68.3	68.3	68.3	34	38.8	0	1	90	0.00	30.257 
17:45	68.3	68.3	68.3	35	39.6	0	1	90	0.00	30.254 
17:50	67.8	67.8	67.8	34	38.4	1	3	90	0.00	30.254 
17:55	67.8	67.8	67.8	36	39.9	0	2	90	0.00	30.254 
18:00	67.8	67.8	67.8	35	39.1	0	1	90	0.00	30.251 
18:05	67.9	67.9	67.9	34	38.5	0	2	90	0.00	30.251 
18:10	67.6	67.6	67.6	32	36.7	0	2	90	0.00	30.251 
18:15	67.3	67.3	67.3	35	38.7	0	1	90	0.00	30.246 
18:20	67.3	67.3	67.3	36	39.4	0	1	90	0.00	30.246 
18:25	66.9	66.9	66.9	35	38.4	0	1	90	0.00	30.246 
18:30	66.8	66.8	66.8	36	39.0	0	1	90	0.00	30.241 
18:35	66.6	66.6	66.6	37	39.5	0	0	---	0.00	30.241 
18:40	66.3	66.3	66.3	35	37.8	0	1	90	0.00	30.241 
18:45	66.0	66.0	66.0	36	38.3	0	0	---	0.00	30.240 
18:50	65.8	65.8	65.8	36	38.1	0	1	90	0.00	30.240 
18:55	65.6	65.6	65.6	36	37.9	0	0	---	0.00	30.240 
19:00	65.6	65.6	65.6	36	37.9	0	0	---	0.00	30.235 
19:05	65.6	65.6	65.6	36	37.9	0	1	90	0.00	30.235 
19:10	65.6	65.6	65.6	37	38.6	0	0	---	0.00	30.235 
19:15	65.5	65.5	65.5	36	37.8	0	1	90	0.00	30.229 
19:20	65.5	65.5	65.5	38	39.2	0	1	90	0.00	30.229 
19:25	65.3	65.3	65.3	37	38.4	0	0	---	0.00	30.229 
19:30	65.2	65.2	65.2	36	37.6	0	0	---	0.00	30.227 
19:35	65.0	65.0	65.0	38	38.8	0	0	---	0.00	30.227 
19:40	64.8	64.8	64.8	38	38.6	0	1	90	0.00	30.227 
19:45	64.8	64.8	64.8	38	38.6	0	0	---	0.00	30.231 
19:50	64.7	64.7	64.7	38	38.5	0	1	90	0.00	30.231 
19:55	64.7	64.7	64.7	39	39.2	0	0	---	0.00	30.231 
20:00	64.5	64.5	64.5	39	39.0	0	1	90	0.00	30.241 
20:05	64.5	64.5	64.5	39	39.0	0	1	90	0.00	30.241 
20:10	64.5	64.5	64.5	39	39.0	0	1	90	0.00	30.241 
20:15	64.3	64.3	64.3	39	38.8	0	1	90	0.00	30.240 
20:20	64.2	64.2	64.2	39	38.7	0	1	90	0.00	30.240 
20:25	64.2	64.2	64.2	40	39.4	0	1	90	0.00	30.240 
20:30	64.0	64.0	64.0	40	39.2	0	1	90	0.00	30.241 
20:35	63.9	63.9	63.9	40	39.1	0	1	90	0.00	30.241 
20:40	63.7	63.7	63.7	40	38.9	0	1	90	0.00	30.241 
20:45	63.5	63.5	63.5	40	38.7	0	1	90	0.00	30.238 
20:50	63.4	63.4	63.4	41	39.3	0	1	90	0.00	30.238 
20:55	63.2	63.2	63.2	41	39.1	0	0	---	0.00	30.238 
21:00	63.1	63.1	63.1	42	39.6	0	0	---	0.00	30.237 
21:05	62.7	62.7	62.7	42	39.3	0	0	---	0.00	30.237 
21:10	62.4	62.4	62.4	43	39.6	0	0	---	0.00	30.237 
21:15	62.1	62.1	62.1	43	39.3	0	0	---	0.00	30.231 
21:20	62.0	62.0	62.0	43	39.2	0	0	---	0.00	30.231 
21:25	61.6	61.6	61.6	43	38.9	0	0	---	0.00	30.231 
21:30	61.2	61.2	61.2	44	39.1	0	0	---	0.00	30.231 
21:35	60.7	60.7	60.7	46	39.8	0	0	---	0.00	30.231 
21:40	60.4	60.4	60.4	46	39.5	0	0	---	0.00	30.231 
21:45	59.9	59.9	59.9	48	40.2	0	0	---	0.00	30.238 
21:50	59.5	59.5	59.5	48	39.8	0	0	---	0.00	30.238 
21:55	58.9	58.9	58.9	49	39.8	0	0	---	0.00	30.238 
22:00	58.3	58.3	58.3	51	40.3	0	0	---	0.00	30.246 
22:05	57.6	57.6	57.6	52	40.1	0	0	---	0.00	30.246 
22:10	57.2	57.2	57.2	54	40.7	0	1	90	0.00	30.246 
22:15	56.9	56.9	56.9	58	42.3	0	1	90	0.00	30.248 
22:20	56.6	56.6	56.6	58	42.0	0	1	90	0.00	30.248 
22:25	56.3	56.3	56.3	58	41.7	0	0	---	0.00	30.248 
22:30	56.2	56.2	56.2	58	41.6	0	0	---	0.00	30.255 
22:35	56.0	56.0	56.0	58	41.4	0	0	---	0.00	30.255 
22:40	55.9	55.9	55.9	58	41.3	0	0	---	0.00	30.255 
22:45	55.6	55.6	55.6	60	41.9	0	0	---	0.00	30.258 
22:50	55.1	55.1	55.1	61	41.9	0	1	90	0.00	30.258 
22:55	54.8	54.8	54.8	61	41.6	0	0	---	0.00	30.258 
23:00	54.5	54.5	54.5	61	41.3	0	0	---	0.00	30.267 
23:05	54.4	54.4	54.4	62	41.7	0	0	---	0.00	30.267 
23:10	54.5	54.5	54.5	59	40.5	0	2	90	0.00	30.267 
23:15	55.0	55.0	55.0	55	39.1	0	2	90	0.00	30.270 
23:20	55.6	55.6	55.6	54	39.2	0	3	90	0.00	30.270 
23:25	56.0	56.0	56.0	52	38.6	1	3	90	0.00	30.270 
23:30	56.3	56.3	56.3	50	37.9	1	2	90	0.00	30.264 
23:35	56.5	56.5	56.5	49	37.6	0	2	90	0.00	30.264 
23:40	56.5	56.5	56.5	49	37.6	0	3	90	0.00	30.264 
23:45	56.3	56.3	56.3	49	37.4	0	2	90	0.00	30.266 
23:50	56.3	56.3	56.3	49	37.4	0	2	90	0.00	30.266 
23:55	56.0	56.0	56.0	49	37.1	0	1	90	0.00	30.266 

CoCoRaHS
IN-AL-39
A2 Web Hosting
Creative Commons License
GoDaddy
search engine by freefind advanced

loaded 2018-11-15 06:06:34 • last modified 2010-11-18 10:43:29
Privacy PolicyDisclaimer
• wx.awcolley.com is powered by PmWiki v.2002016 •
• all content (unless otherwise noted) © 2018 A W Colley